Time;durP1;ratioP1;P1;durP2;ratioP2;P2;SDS_P1;SDS_P2;PMS_P1;PMS_P2;Temp;Humidity;BMP_temperature;BMP_pressure;BME280_temperature;BME280_humidity;BME280_pressure;Samples;Min_cycle;Max_cycle;Signal;HPM_P1;HPM_P2
2022/03/12 00:00:37;;;;;;;31.87;11.57;;;;;;;;;;1716731;83;21230;-69
2022/03/12 00:05:57;;;;;;;40.30;12.80;;;;;;;;;;1802014;79;23589;-69
2022/03/12 00:08:34;;;;;;;34.88;12.85;;;;;;;;;;1761718;81;21595;-68
2022/03/12 00:10:55;;;;;;;35.20;13.75;;;;;;;;;;1760884;81;21124;-68
2022/03/12 00:13:24;;;;;;;29.85;12.45;;;;;;;;;;1761661;81;21060;-68
2022/03/12 00:15:50;;;;;;;39.10;13.72;;;;;;;;;;1761784;81;21001;-68
2022/03/12 00:18:20;;;;;;;32.20;11.68;;;;;;;;;;1761553;81;21398;-68
2022/03/12 00:20:47;;;;;;;24.92;11.43;;;;;;;;;;1761752;81;21012;-69
2022/03/12 00:23:17;;;;;;;30.43;11.78;;;;;;;;;;1761731;81;21029;-69
2022/03/12 00:25:44;;;;;;;42.03;15.03;;;;;;;;;;1761910;81;21068;-69
2022/03/12 00:28:12;;;;;;;29.87;13.10;;;;;;;;;;1761902;81;21086;-69
2022/03/12 00:30:45;;;;;;;22.27;10.55;;;;;;;;;;1761769;81;21488;-69
2022/03/12 00:33:10;;;;;;;26.07;10.78;;;;;;;;;;1761365;81;21057;-70
2022/03/12 00:35:37;;;;;;;27.73;10.95;;;;;;;;;;1761797;81;21068;-69
2022/03/12 00:38:08;;;;;;;36.33;11.88;;;;;;;;;;1761529;81;21104;-69
2022/03/12 00:40:35;;;;;;;34.40;13.40;;;;;;;;;;1761818;81;20989;-69
2022/03/12 00:43:01;;;;;;;32.40;12.18;;;;;;;;;;1761657;81;20993;-69
2022/03/12 00:45:29;;;;;;;34.48;14.38;;;;;;;;;;1761528;81;21064;-72
2022/03/12 00:47:58;;;;;;;36.00;15.55;;;;;;;;;;1761663;81;21056;-71
2022/03/12 00:50:24;;;;;;;33.98;11.55;;;;;;;;;;1761704;81;21012;-70
2022/03/12 00:52:50;;;;;;;46.10;18.50;;;;;;;;;;1761640;81;21671;-69
2022/03/12 00:55:17;;;;;;;44.95;14.80;;;;;;;;;;1761361;81;21575;-69
2022/03/12 00:57:43;;;;;;;29.45;12.35;;;;;;;;;;1761822;81;21016;-69
2022/03/12 01:00:16;;;;;;;44.05;14.20;;;;;;;;;;1761622;81;21024;-69
2022/03/12 01:02:42;;;;;;;38.75;14.40;;;;;;;;;;1761613;81;21021;-69
2022/03/12 01:05:09;;;;;;;46.83;18.15;;;;;;;;;;1729322;81;21127;-69
2022/03/12 01:07:35;;;;;;;48.40;19.23;;;;;;;;;;1712640;84;21111;-69
2022/03/12 01:10:02;;;;;;;40.67;14.13;;;;;;;;;;1712923;84;20973;-69
2022/03/12 01:12:31;;;;;;;43.58;19.15;;;;;;;;;;1712840;84;21096;-69
2022/03/12 01:14:57;;;;;;;41.37;17.00;;;;;;;;;;1712560;84;21544;-69
2022/03/12 01:17:24;;;;;;;50.73;18.67;;;;;;;;;;1712393;84;21065;-69
2022/03/12 01:19:50;;;;;;;62.23;22.48;;;;;;;;;;1712413;84;21075;-70
2022/03/12 01:22:20;;;;;;;41.33;16.20;;;;;;;;;;1712325;83;21100;-70
2022/03/12 01:24:46;;;;;;;56.10;21.65;;;;;;;;;;1712537;83;21091;-69
2022/03/12 01:27:15;;;;;;;44.60;15.72;;;;;;;;;;1712404;84;21004;-69
2022/03/12 01:29:41;;;;;;;44.30;17.60;;;;;;;;;;1698447;81;74627;-69
2022/03/12 01:32:09;;;;;;;49.45;20.50;;;;;;;;;;1680114;85;21081;-69
2022/03/12 01:34:35;;;;;;;43.55;16.05;;;;;;;;;;1680056;85;21037;-69
2022/03/12 01:37:02;;;;;;;43.90;18.23;;;;;;;;;;1680066;85;21093;-69
2022/03/12 01:39:28;;;;;;;49.42;19.10;;;;;;;;;;1680244;85;21018;-69
2022/03/12 01:41:54;;;;;;;37.13;14.28;;;;;;;;;;1680398;85;20998;-69
2022/03/12 01:44:21;;;;;;;38.35;14.85;;;;;;;;;;1679998;85;21125;-69
2022/03/12 01:46:48;;;;;;;41.40;16.73;;;;;;;;;;1680311;85;21110;-69
2022/03/12 01:49:18;;;;;;;36.42;16.52;;;;;;;;;;1679725;85;21085;-68
2022/03/12 01:51:46;;;;;;;33.35;14.25;;;;;;;;;;1680323;85;21490;-69
2022/03/12 01:54:13;;;;;;;42.70;17.85;;;;;;;;;;1680158;85;21544;-69
2022/03/12 01:56:40;;;;;;;31.42;14.58;;;;;;;;;;1680302;85;21009;-69
2022/03/12 01:59:07;;;;;;;44.67;16.32;;;;;;;;;;1679940;85;21368;-69
2022/03/12 02:04:25;;;;;;;39.33;14.85;;;;;;;;;;1731554;79;21625;-69
2022/03/12 02:06:52;;;;;;;41.63;16.65;;;;;;;;;;1738521;82;21080;-68
2022/03/12 02:09:22;;;;;;;43.20;17.60;;;;;;;;;;1738124;82;21066;-68
2022/03/12 02:11:50;;;;;;;45.92;18.70;;;;;;;;;;1738510;82;21098;-68
2022/03/12 02:14:18;;;;;;;46.83;16.35;;;;;;;;;;1738431;82;21065;-69
2022/03/12 02:16:52;;;;;;;47.78;15.65;;;;;;;;;;1738440;82;21097;-68
2022/03/12 02:19:19;;;;;;;48.55;17.23;;;;;;;;;;1738625;82;21481;-69
2022/03/12 02:21:53;;;;;;;35.55;13.80;;;;;;;;;;1738680;82;21025;-68
2022/03/12 02:24:20;;;;;;;34.60;14.38;;;;;;;;;;1738456;82;21647;-68
2022/03/12 02:26:47;;;;;;;36.20;13.22;;;;;;;;;;1738371;82;21073;-68
2022/03/12 02:29:15;;;;;;;34.95;13.15;;;;;;;;;;1738456;82;21065;-68
2022/03/12 02:31:44;;;;;;;29.92;13.70;;;;;;;;;;1738688;82;21033;-68
2022/03/12 02:34:11;;;;;;;32.50;12.55;;;;;;;;;;1738246;82;21041;-68
2022/03/12 02:36:39;;;;;;;42.15;13.58;;;;;;;;;;1738467;82;21110;-68
2022/03/12 02:39:06;;;;;;;45.25;16.75;;;;;;;;;;1738684;82;20998;-69
2022/03/12 02:41:33;;;;;;;36.20;12.95;;;;;;;;;;1738609;82;21065;-69
2022/03/12 02:44:02;;;;;;;36.98;13.25;;;;;;;;;;1738287;82;21077;-68
2022/03/12 02:46:32;;;;;;;31.60;13.38;;;;;;;;;;1738594;82;21268;-68
2022/03/12 02:48:57;;;;;;;42.73;14.73;;;;;;;;;;1743989;82;21080;-68
2022/03/12 02:51:25;;;;;;;30.62;11.40;;;;;;;;;;1744465;82;21009;-68
2022/03/12 02:53:55;;;;;;;35.70;13.98;;;;;;;;;;1744439;82;21044;-68
2022/03/12 02:56:21;;;;;;;32.42;11.35;;;;;;;;;;1744316;82;21093;-69
2022/03/12 02:58:47;;;;;;;29.50;11.70;;;;;;;;;;1744474;82;21017;-69
2022/03/12 03:01:17;;;;;;;35.80;13.18;;;;;;;;;;1744526;82;21013;-70
2022/03/12 03:03:42;;;;;;;17.12;8.08;;;;;;;;;;1743654;81;21073;-69
2022/03/12 03:06:09;;;;;;;26.95;10.82;;;;;;;;;;1744595;82;21041;-70
2022/03/12 03:08:39;;;;;;;22.32;9.15;;;;;;;;;;1744404;82;20985;-70
2022/03/12 03:11:10;;;;;;;27.48;9.28;;;;;;;;;;1744195;82;21060;-70
2022/03/12 03:13:40;;;;;;;22.25;9.35;;;;;;;;;;1744303;82;21092;-69
2022/03/12 03:16:09;;;;;;;25.40;10.50;;;;;;;;;;1744159;82;21002;-69
2022/03/12 03:18:39;;;;;;;21.77;9.40;;;;;;;;;;1744381;82;21041;-69
2022/03/12 03:21:06;;;;;;;21.10;8.20;;;;;;;;;;1744717;82;21053;-69
2022/03/12 03:23:34;;;;;;;21.85;8.83;;;;;;;;;;1744247;82;22004;-70
2022/03/12 03:26:01;;;;;;;19.02;7.58;;;;;;;;;;1744341;82;21097;-70
2022/03/12 03:28:29;;;;;;;18.10;8.23;;;;;;;;;;1744230;82;21053;-70
2022/03/12 03:30:55;;;;;;;16.85;7.65;;;;;;;;;;1744076;82;21072;-70
2022/03/12 03:33:22;;;;;;;17.10;6.90;;;;;;;;;;1744178;82;21049;-69
2022/03/12 03:35:49;;;;;;;18.95;7.15;;;;;;;;;;1744209;82;21073;-69
2022/03/12 03:38:15;;;;;;;16.70;6.33;;;;;;;;;;1744359;82;20994;-71
2022/03/12 03:40:43;;;;;;;14.47;6.92;;;;;;;;;;1744067;82;21072;-69
2022/03/12 03:43:13;;;;;;;19.95;7.72;;;;;;;;;;1744419;82;21048;-70
2022/03/12 03:45:43;;;;;;;26.70;9.23;;;;;;;;;;1744363;82;21473;-70
2022/03/12 03:48:13;;;;;;;14.07;5.92;;;;;;;;;;1744338;82;21536;-70
2022/03/12 03:50:39;;;;;;;18.17;7.67;;;;;;;;;;1744282;82;21156;-69
2022/03/12 03:53:06;;;;;;;17.65;7.37;;;;;;;;;;1744049;82;21060;-70
2022/03/12 03:55:33;;;;;;;19.17;8.53;;;;;;;;;;1744283;82;21551;-69
2022/03/12 03:58:00;;;;;;;15.58;7.58;;;;;;;;;;1744304;82;21581;-69
2022/03/12 04:00:27;;;;;;;15.43;5.83;;;;;;;;;;1743937;82;21048;-69
2022/03/12 04:03:01;;;;;;;14.45;5.72;;;;;;;;;;1744087;81;21065;-69
2022/03/12 04:05:22;;;;;;;14.83;7.15;;;;;;;;;;1752748;82;21092;-69
2022/03/12 04:07:49;;;;;;;19.45;8.08;;;;;;;;;;1755750;82;21064;-69
2022/03/12 04:10:16;;;;;;;15.38;7.33;;;;;;;;;;1755475;82;21593;-69
2022/03/12 04:12:42;;;;;;;16.55;8.65;;;;;;;;;;1755779;82;21077;-68
2022/03/12 04:15:09;;;;;;;17.70;7.55;;;;;;;;;;1755440;82;21076;-69
2022/03/12 04:17:37;;;;;;;19.85;7.72;;;;;;;;;;1755779;82;21869;-69
2022/03/12 04:20:04;;;;;;;16.07;6.62;;;;;;;;;;1755772;82;21519;-69
2022/03/12 04:22:34;;;;;;;20.75;8.03;;;;;;;;;;1755734;82;21550;-68
2022/03/12 04:25:00;;;;;;;12.30;6.65;;;;;;;;;;1755685;82;21076;-69
2022/03/12 04:27:30;;;;;;;18.80;7.97;;;;;;;;;;1755761;82;21028;-68
2022/03/12 04:29:57;;;;;;;16.93;7.37;;;;;;;;;;1755538;82;21032;-69
2022/03/12 04:35:13;;;;;;;17.37;6.67;;;;;;;;;;1733030;79;21101;-72
2022/03/12 04:37:40;;;;;;;15.20;6.97;;;;;;;;;;1720435;83;21021;-68
2022/03/12 04:40:11;;;;;;;17.98;8.35;;;;;;;;;;1720173;83;21108;-69
2022/03/12 04:42:42;;;;;;;15.60;6.67;;;;;;;;;;1720393;83;21073;-69
2022/03/12 04:45:09;;;;;;;14.80;6.22;;;;;;;;;;1720113;83;21599;-70
2022/03/12 04:47:35;;;;;;;17.37;7.25;;;;;;;;;;1720358;83;21036;-71
2022/03/12 04:50:02;;;;;;;14.83;6.55;;;;;;;;;;1720316;83;21034;-70
2022/03/12 04:52:30;;;;;;;13.70;6.80;;;;;;;;;;1720201;83;21002;-70
2022/03/12 04:54:56;;;;;;;15.13;6.85;;;;;;;;;;1720497;83;21064;-70
2022/03/12 04:57:23;;;;;;;20.25;8.53;;;;;;;;;;1739518;82;21040;-70
2022/03/12 04:59:50;;;;;;;24.05;9.98;;;;;;;;;;1720406;83;21048;-70
2022/03/12 05:02:16;;;;;;;20.65;7.90;;;;;;;;;;1720503;83;21025;-70
2022/03/12 05:04:42;;;;;;;15.93;7.03;;;;;;;;;;1720320;83;21076;-70
2022/03/12 05:07:12;;;;;;;16.52;7.83;;;;;;;;;;1720273;83;21071;-69
2022/03/12 05:09:38;;;;;;;19.30;7.42;;;;;;;;;;1720479;83;21548;-69
2022/03/12 05:12:07;;;;;;;18.15;8.13;;;;;;;;;;1720069;83;21021;-69
2022/03/12 05:14:36;;;;;;;18.50;7.53;;;;;;;;;;1720208;83;21511;-69
2022/03/12 05:17:04;;;;;;;11.73;5.75;;;;;;;;;;1720500;83;21017;-70
2022/03/12 05:19:31;;;;;;;16.80;6.35;;;;;;;;;;1720371;83;21008;-70
2022/03/12 05:21:58;;;;;;;18.75;7.35;;;;;;;;;;1720144;83;21072;-70
2022/03/12 05:24:24;;;;;;;21.90;7.17;;;;;;;;;;1720501;83;21047;-71
2022/03/12 05:26:51;;;;;;;14.80;7.03;;;;;;;;;;1720118;83;21100;-71
2022/03/12 05:29:18;;;;;;;16.20;7.47;;;;;;;;;;1720596;83;21029;-70
2022/03/12 05:31:44;;;;;;;12.95;6.53;;;;;;;;;;1720266;83;21116;-70
2022/03/12 05:34:11;;;;;;;15.48;6.33;;;;;;;;;;1725172;82;21060;-70
2022/03/12 05:36:37;;;;;;;14.60;7.22;;;;;;;;;;1749947;81;21053;-70
2022/03/12 05:39:04;;;;;;;19.00;7.67;;;;;;;;;;1750487;82;21013;-70
2022/03/12 05:41:38;;;;;;;14.70;6.95;;;;;;;;;;1750039;82;21053;-70
2022/03/12 05:43:59;;;;;;;13.70;7.53;;;;;;;;;;1749120;82;21057;-69
2022/03/12 05:46:26;;;;;;;10.45;5.30;;;;;;;;;;1750261;82;21021;-70
2022/03/12 05:48:53;;;;;;;13.13;7.30;;;;;;;;;;1750277;82;21540;-70
2022/03/12 05:51:20;;;;;;;18.65;8.30;;;;;;;;;;1750076;82;21548;-70
2022/03/12 05:53:48;;;;;;;16.23;7.60;;;;;;;;;;1750488;82;21000;-70
2022/03/12 05:56:14;;;;;;;12.23;6.70;;;;;;;;;;1750367;82;21005;-70
2022/03/12 05:58:41;;;;;;;16.62;7.62;;;;;;;;;;1750175;82;21064;-70
2022/03/12 06:01:07;;;;;;;17.60;8.70;;;;;;;;;;1750273;82;21017;-70
2022/03/12 06:03:34;;;;;;;18.27;7.50;;;;;;;;;;1750166;82;20993;-70
2022/03/12 06:06:01;;;;;;;15.63;8.73;;;;;;;;;;1750159;82;21076;-70
2022/03/12 06:08:28;;;;;;;17.70;9.08;;;;;;;;;;1750296;82;21075;-70
2022/03/12 06:10:55;;;;;;;14.33;6.55;;;;;;;;;;1750137;82;21069;-70
2022/03/12 06:13:23;;;;;;;16.42;8.05;;;;;;;;;;1750108;82;21076;-70
2022/03/12 06:15:58;;;;;;;13.98;7.12;;;;;;;;;;1750259;82;21060;-70
2022/03/12 06:18:23;;;;;;;15.93;8.08;;;;;;;;;;1749070;82;21045;-70
2022/03/12 06:20:49;;;;;;;13.25;6.53;;;;;;;;;;1750189;82;21117;-70
2022/03/12 06:23:15;;;;;;;14.75;7.55;;;;;;;;;;1750250;82;21025;-70
2022/03/12 06:25:41;;;;;;;16.90;8.08;;;;;;;;;;1750120;82;21073;-70
2022/03/12 06:28:08;;;;;;;12.88;5.87;;;;;;;;;;1749939;82;21037;-70
2022/03/12 06:30:35;;;;;;;14.47;8.10;;;;;;;;;;1749884;82;21030;-70
2022/03/12 06:33:05;;;;;;;12.50;7.70;;;;;;;;;;1750280;82;20989;-70
2022/03/12 06:35:31;;;;;;;13.48;5.42;;;;;;;;;;1747394;81;21655;-70
2022/03/12 06:37:57;;;;;;;11.88;6.70;;;;;;;;;;1744577;82;21540;-70
2022/03/12 06:40:29;;;;;;;15.93;7.47;;;;;;;;;;1744347;82;21068;-70
2022/03/12 06:42:54;;;;;;;12.73;6.33;;;;;;;;;;1743696;82;21073;-70
2022/03/12 06:45:21;;;;;;;14.15;7.53;;;;;;;;;;1744203;82;21109;-71
2022/03/12 06:47:48;;;;;;;13.93;8.03;;;;;;;;;;1744697;82;21001;-70
2022/03/12 06:50:17;;;;;;;15.03;8.05;;;;;;;;;;1744372;82;21049;-70
2022/03/12 06:52:48;;;;;;;15.98;8.45;;;;;;;;;;1744640;82;21065;-70
2022/03/12 06:55:18;;;;;;;16.02;7.83;;;;;;;;;;1781562;80;21057;-70
2022/03/12 06:57:46;;;;;;;16.35;8.90;;;;;;;;;;1781729;80;21552;-70
2022/03/12 07:00:15;;;;;;;16.17;8.25;;;;;;;;;;1781526;80;21056;-70
2022/03/12 07:02:43;;;;;;;15.38;7.72;;;;;;;;;;1781448;80;21518;-70
2022/03/12 07:05:09;;;;;;;13.88;5.70;;;;;;;;;;1781579;80;21521;-70
2022/03/12 07:07:37;;;;;;;14.53;8.03;;;;;;;;;;1781621;80;21082;-69
2022/03/12 07:10:05;;;;;;;16.25;7.90;;;;;;;;;;1781940;80;21588;-69
2022/03/12 07:12:31;;;;;;;15.70;7.72;;;;;;;;;;1781842;80;21037;-70
2022/03/12 07:14:58;;;;;;;13.50;7.28;;;;;;;;;;1781848;80;21013;-70
2022/03/12 07:17:24;;;;;;;15.80;6.53;;;;;;;;;;1781579;80;21089;-70
2022/03/12 07:19:51;;;;;;;12.20;6.72;;;;;;;;;;1781841;80;21061;-69
2022/03/12 07:22:19;;;;;;;12.35;5.33;;;;;;;;;;1781626;80;21533;-69
2022/03/12 07:24:45;;;;;;;13.53;6.80;;;;;;;;;;1781940;80;21025;-70
2022/03/12 07:27:13;;;;;;;14.15;5.97;;;;;;;;;;1781630;80;21065;-71
2022/03/12 07:29:39;;;;;;;9.95;5.12;;;;;;;;;;1781721;80;21567;-70
2022/03/12 07:32:07;;;;;;;8.35;4.42;;;;;;;;;;1781674;80;21579;-71
2022/03/12 07:34:34;;;;;;;10.75;4.78;;;;;;;;;;1781452;79;21128;-70
2022/03/12 07:37:00;;;;;;;10.95;5.03;;;;;;;;;;1784384;80;21541;-70
2022/03/12 07:39:26;;;;;;;10.82;4.85;;;;;;;;;;1784594;80;21349;-70
2022/03/12 07:41:53;;;;;;;9.23;4.33;;;;;;;;;;1784600;80;21069;-70
2022/03/12 07:44:19;;;;;;;8.28;4.20;;;;;;;;;;1784816;80;21049;-70
2022/03/12 07:46:46;;;;;;;7.75;3.60;;;;;;;;;;1784510;80;21042;-71
2022/03/12 07:49:13;;;;;;;9.15;4.90;;;;;;;;;;1784467;80;21053;-70
2022/03/12 07:51:43;;;;;;;6.90;3.75;;;;;;;;;;1784608;80;21006;-70
2022/03/12 07:54:08;;;;;;;8.70;4.67;;;;;;;;;;1784332;80;21576;-70
2022/03/12 07:56:35;;;;;;;9.38;4.92;;;;;;;;;;1784426;80;21647;-71
2022/03/12 07:59:02;;;;;;;11.18;4.33;;;;;;;;;;1784952;80;21010;-70
2022/03/12 08:01:28;;;;;;;10.43;5.37;;;;;;;;;;1784562;80;21069;-70
2022/03/12 08:03:55;;;;;;;6.47;3.55;;;;;;;;;;1784783;80;21611;-70
2022/03/12 08:06:22;;;;;;;7.83;4.30;;;;;;;;;;1784492;80;21534;-70
2022/03/12 08:08:48;;;;;;;10.55;4.78;;;;;;;;;;1784784;80;22152;-70
2022/03/12 08:11:30;;;;;;;8.10;3.42;;;;;;;;;;1784544;80;21559;-70
2022/03/12 08:14:01;;;;;;;7.70;3.62;;;;;;;;;;1784793;80;21529;-70
2022/03/12 08:16:28;;;;;;;3.50;2.22;;;;;;;;;;1783790;80;21100;-70
2022/03/12 08:18:55;;;;;;;5.67;2.55;;;;;;;;;;1784723;80;21021;-70
2022/03/12 08:21:21;;;;;;;5.55;2.50;;;;;;;;;;1784774;79;21064;-70
2022/03/12 08:23:48;;;;;;;5.72;3.10;;;;;;;;;;1784779;80;21077;-69
2022/03/12 08:26:14;;;;;;;8.23;4.35;;;;;;;;;;1784717;80;21038;-69
2022/03/12 08:28:41;;;;;;;5.92;4.12;;;;;;;;;;1784961;80;22225;-69
2022/03/12 08:31:07;;;;;;;8.25;4.17;;;;;;;;;;1784605;80;21540;-69
2022/03/12 08:33:34;;;;;;;9.23;4.50;;;;;;;;;;1785016;80;21508;-69
2022/03/12 08:36:02;;;;;;;8.38;3.98;;;;;;;;;;1784689;79;21061;-69
2022/03/12 08:38:29;;;;;;;10.78;4.75;;;;;;;;;;1784730;80;21058;-69
2022/03/12 08:40:56;;;;;;;6.87;4.17;;;;;;;;;;1784746;80;21018;-70
2022/03/12 08:43:23;;;;;;;10.38;5.53;;;;;;;;;;1784757;80;21099;-69
2022/03/12 08:45:50;;;;;;;10.88;6.22;;;;;;;;;;1784941;80;21069;-69
2022/03/12 08:48:16;;;;;;;8.85;5.10;;;;;;;;;;1785137;80;21006;-69
2022/03/12 08:50:44;;;;;;;6.08;3.60;;;;;;;;;;1784920;78;21100;-69
2022/03/12 08:53:11;;;;;;;5.00;3.10;;;;;;;;;;1784732;80;21042;-69
2022/03/12 08:55:39;;;;;;;6.58;3.35;;;;;;;;;;1784779;80;21057;-69
2022/03/12 08:58:05;;;;;;;7.53;3.52;;;;;;;;;;1784857;80;21002;-70
2022/03/12 09:00:32;;;;;;;5.60;3.33;;;;;;;;;;1784808;80;21073;-70
2022/03/12 09:02:59;;;;;;;6.80;3.20;;;;;;;;;;1784657;80;21560;-70
2022/03/12 09:05:25;;;;;;;6.62;3.10;;;;;;;;;;1784826;80;21604;-70
2022/03/12 09:07:53;;;;;;;5.72;3.50;;;;;;;;;;1784609;80;21116;-70
2022/03/12 09:10:20;;;;;;;6.12;2.80;;;;;;;;;;1784819;80;21034;-69
2022/03/12 09:12:46;;;;;;;6.30;3.52;;;;;;;;;;1784736;80;21104;-70
2022/03/12 09:15:14;;;;;;;8.13;3.55;;;;;;;;;;1784806;80;21053;-69
2022/03/12 09:17:40;;;;;;;5.83;2.67;;;;;;;;;;1784828;80;21096;-70
2022/03/12 09:20:07;;;;;;;6.53;3.22;;;;;;;;;;1785009;80;21001;-70
2022/03/12 09:22:36;;;;;;;6.00;3.58;;;;;;;;;;1784939;80;21639;-70
2022/03/12 09:25:03;;;;;;;5.72;3.50;;;;;;;;;;1784770;80;20971;-70
2022/03/12 09:27:30;;;;;;;7.20;3.12;;;;;;;;;;1784867;80;20994;-70
2022/03/12 09:29:56;;;;;;;6.30;3.27;;;;;;;;;;1784604;80;21056;-69
2022/03/12 09:32:23;;;;;;;7.72;3.62;;;;;;;;;;1784852;80;21060;-70
2022/03/12 09:34:50;;;;;;;4.62;3.10;;;;;;;;;;1784699;79;21124;-70
2022/03/12 09:37:17;;;;;;;6.45;3.67;;;;;;;;;;1780306;80;21077;-70
2022/03/12 09:39:44;;;;;;;6.83;3.20;;;;;;;;;;1779695;80;21037;-70
2022/03/12 09:42:12;;;;;;;5.28;3.15;;;;;;;;;;1779476;80;21001;-70
2022/03/12 09:44:40;;;;;;;7.22;4.17;;;;;;;;;;1779642;80;21450;-70
2022/03/12 09:47:07;;;;;;;5.70;3.58;;;;;;;;;;1779250;81;21062;-70
2022/03/12 09:49:36;;;;;;;5.28;2.62;;;;;;;;;;1779670;80;21591;-70
2022/03/12 09:52:03;;;;;;;5.70;3.65;;;;;;;;;;1779362;81;21026;-70
2022/03/12 09:54:30;;;;;;;4.15;2.98;;;;;;;;;;1779637;80;21055;-69
2022/03/12 09:56:57;;;;;;;7.28;4.03;;;;;;;;;;1779273;81;21565;-69
2022/03/12 09:59:25;;;;;;;6.87;3.62;;;;;;;;;;1779657;80;21600;-69
2022/03/12 10:01:54;;;;;;;6.10;3.37;;;;;;;;;;1779431;81;20987;-70
2022/03/12 10:04:21;;;;;;;5.87;3.65;;;;;;;;;;1779716;80;21513;-70
2022/03/12 10:06:49;;;;;;;7.15;3.60;;;;;;;;;;1779482;81;21541;-70
2022/03/12 10:09:16;;;;;;;5.67;3.70;;;;;;;;;;1779804;80;21001;-70
2022/03/12 10:11:44;;;;;;;10.15;3.85;;;;;;;;;;1779281;81;21106;-70
2022/03/12 10:14:13;;;;;;;8.90;4.62;;;;;;;;;;1779853;80;21022;-70
2022/03/12 10:16:40;;;;;;;9.10;3.70;;;;;;;;;;1779573;80;20998;-70
2022/03/12 10:19:07;;;;;;;8.08;3.95;;;;;;;;;;1779731;80;21053;-70
2022/03/12 10:21:42;;;;;;;8.60;3.60;;;;;;;;;;1779298;80;20995;-70
2022/03/12 10:24:06;;;;;;;8.15;4.80;;;;;;;;;;1778434;81;21081;-69
2022/03/12 10:26:32;;;;;;;6.62;3.60;;;;;;;;;;1779550;80;21030;-70
2022/03/12 10:28:58;;;;;;;9.08;4.40;;;;;;;;;;1779345;81;21092;-71
2022/03/12 10:31:26;;;;;;;8.23;3.25;;;;;;;;;;1779657;80;21595;-69
2022/03/12 10:33:52;;;;;;;7.62;4.53;;;;;;;;;;1779485;80;21061;-69
2022/03/12 10:36:19;;;;;;;6.58;3.72;;;;;;;;;;1779161;81;21580;-69
2022/03/12 10:38:46;;;;;;;6.17;3.90;;;;;;;;;;1779277;81;21026;-69
2022/03/12 10:41:13;;;;;;;7.00;4.30;;;;;;;;;;1779501;80;21049;-69
2022/03/12 10:43:45;;;;;;;4.97;3.22;;;;;;;;;;1779323;81;21030;-69
2022/03/12 10:46:11;;;;;;;7.47;4.12;;;;;;;;;;1768505;80;21002;-69
2022/03/12 10:48:38;;;;;;;7.15;3.67;;;;;;;;;;1779588;80;21010;-69
2022/03/12 10:51:05;;;;;;;7.58;4.35;;;;;;;;;;1779493;80;21065;-69
2022/03/12 10:53:32;;;;;;;6.28;3.70;;;;;;;;;;1779315;81;21042;-69
2022/03/12 10:55:59;;;;;;;5.67;3.72;;;;;;;;;;1749262;80;21057;-68
2022/03/12 10:58:27;;;;;;;5.85;3.10;;;;;;;;;;1779402;81;21057;-68
2022/03/12 11:00:55;;;;;;;8.43;3.30;;;;;;;;;;1779378;80;21580;-68
2022/03/12 11:03:27;;;;;;;8.75;4.55;;;;;;;;;;1779401;81;21003;-69
2022/03/12 11:05:55;;;;;;;7.58;4.42;;;;;;;;;;1779405;80;21002;-69
2022/03/12 11:08:24;;;;;;;10.32;6.47;;;;;;;;;;1779390;81;21065;-69
2022/03/12 11:10:51;;;;;;;11.03;6.00;;;;;;;;;;1779421;80;21086;-69
2022/03/12 11:13:25;;;;;;;10.48;5.55;;;;;;;;;;1779252;81;21038;-69
2022/03/12 11:16:14;;;;;;;11.43;5.85;;;;;;;;;;1779242;81;21073;-69
2022/03/12 11:18:55;;;;;;;11.25;6.12;;;;;;;;;;1779309;81;21101;-70
2022/03/12 11:21:33;;;;;;;8.28;4.65;;;;;;;;;;1779513;80;21002;-70
2022/03/12 11:23:59;;;;;;;11.03;6.22;;;;;;;;;;1779282;80;21058;-69
2022/03/12 11:26:26;;;;;;;12.58;6.90;;;;;;;;;;1779860;80;21581;-69
2022/03/12 11:28:58;;;;;;;11.73;5.53;;;;;;;;;;1780268;81;21089;-69
2022/03/12 11:31:38;;;;;;;7.45;4.37;;;;;;;;;;1779717;80;21089;-69
2022/03/12 11:34:24;;;;;;;7.65;4.50;;;;;;;;;;1690755;80;21070;-70
2022/03/12 11:36:56;;;;;;;9.45;4.97;;;;;;;;;;1779187;81;21573;-70
2022/03/12 11:39:40;;;;;;;8.18;5.45;;;;;;;;;;1779574;80;21010;-69
2022/03/12 11:42:15;;;;;;;10.48;6.67;;;;;;;;;;1779576;80;21014;-69
2022/03/12 11:44:45;;;;;;;12.20;6.85;;;;;;;;;;1779572;80;21025;-70
2022/03/12 11:47:12;;;;;;;12.55;7.10;;;;;;;;;;1779329;81;21573;-70
2022/03/12 11:49:39;;;;;;;13.38;6.78;;;;;;;;;;1779509;80;21497;-69
2022/03/12 11:52:05;;;;;;;9.90;6.17;;;;;;;;;;1779374;80;21556;-69
2022/03/12 11:54:35;;;;;;;10.50;5.35;;;;;;;;;;1779447;80;21030;-70
2022/03/12 11:57:01;;;;;;;9.55;5.67;;;;;;;;;;1779219;81;21062;-68
2022/03/12 11:59:29;;;;;;;11.83;7.12;;;;;;;;;;1779452;80;21568;-69
2022/03/12 12:02:01;;;;;;;9.15;5.40;;;;;;;;;;1779351;81;21026;-68
2022/03/12 12:04:32;;;;;;;10.45;7.25;;;;;;;;;;1778571;80;21054;-68
2022/03/12 12:06:57;;;;;;;9.88;6.58;;;;;;;;;;1779248;80;21053;-68
2022/03/12 12:09:23;;;;;;;11.50;6.90;;;;;;;;;;1779516;80;21057;-69
2022/03/12 12:11:50;;;;;;;12.80;6.33;;;;;;;;;;1779084;81;21073;-70
2022/03/12 12:14:19;;;;;;;13.10;7.97;;;;;;;;;;1779388;81;21138;-70
2022/03/12 12:16:48;;;;;;;16.40;9.38;;;;;;;;;;1779431;80;20994;-69
2022/03/12 12:19:16;;;;;;;15.53;8.05;;;;;;;;;;1779630;81;21073;-70
2022/03/12 12:22:50;;;;;;;17.23;8.70;;;;;;;;;;1801775;79;23013;-71
2022/03/12 12:25:19;;;;;;;16.30;9.10;;;;;;;;;;1762012;81;21025;-69
2022/03/12 12:27:50;;;;;;;13.03;7.67;;;;;;;;;;1761812;81;21048;-69
2022/03/12 12:30:18;;;;;;;12.25;6.92;;;;;;;;;;1761208;81;21052;-68
2022/03/12 12:32:48;;;;;;;13.43;7.08;;;;;;;;;;1760802;81;21056;-68
2022/03/12 12:35:16;;;;;;;13.05;6.45;;;;;;;;;;1740741;81;21088;-69
2022/03/12 12:37:54;;;;;;;13.50;6.53;;;;;;;;;;1730103;83;21052;-70
2022/03/12 12:40:24;;;;;;;13.03;7.35;;;;;;;;;;1730152;82;21025;-70
2022/03/12 12:42:51;;;;;;;10.82;6.47;;;;;;;;;;1729953;83;21116;-70
2022/03/12 12:45:27;;;;;;;13.35;6.45;;;;;;;;;;1730282;83;21036;-70
2022/03/12 12:48:07;;;;;;;12.03;5.97;;;;;;;;;;1730039;82;21088;-69
2022/03/12 12:50:33;;;;;;;16.32;7.67;;;;;;;;;;1730352;83;20988;-69
2022/03/12 12:53:11;;;;;;;14.73;8.80;;;;;;;;;;1729917;82;21043;-68
2022/03/12 12:55:38;;;;;;;11.35;7.17;;;;;;;;;;1730364;82;21009;-67
2022/03/12 12:58:05;;;;;;;15.95;8.58;;;;;;;;;;1729862;82;21104;-68
2022/03/12 13:00:33;;;;;;;13.60;6.53;;;;;;;;;;1730235;83;21045;-70
2022/03/12 13:03:04;;;;;;;12.88;7.10;;;;;;;;;;1730112;83;21033;-69
2022/03/12 13:05:44;;;;;;;11.65;6.58;;;;;;;;;;1730192;82;21081;-70
2022/03/12 13:08:10;;;;;;;12.85;6.58;;;;;;;;;;1730124;83;21073;-70
2022/03/12 13:10:36;;;;;;;12.70;6.37;;;;;;;;;;1730262;82;21017;-69
2022/03/12 13:13:13;;;;;;;8.18;4.37;;;;;;;;;;1730043;83;21036;-69
2022/03/12 13:15:40;;;;;;;7.28;4.40;;;;;;;;;;1730167;83;21033;-69
2022/03/12 13:18:27;;;;;;;12.78;5.70;;;;;;;;;;1730193;82;21553;-68
2022/03/12 13:20:54;;;;;;;10.05;5.97;;;;;;;;;;1730017;83;21060;-69
2022/03/12 13:23:30;;;;;;;11.22;5.85;;;;;;;;;;1730058;82;21076;-69
2022/03/12 13:26:00;;;;;;;11.85;6.97;;;;;;;;;;1730339;82;21041;-69
2022/03/12 13:28:39;;;;;;;11.53;6.78;;;;;;;;;;1730362;83;21037;-69
2022/03/12 13:31:20;;;;;;;10.15;5.72;;;;;;;;;;1729485;82;21063;-69
2022/03/12 13:33:50;;;;;;;14.35;7.35;;;;;;;;;;1729885;81;21116;-69
2022/03/12 13:36:21;;;;;;;12.25;7.33;;;;;;;;;;1720863;83;21076;-69
2022/03/12 13:38:50;;;;;;;14.28;7.40;;;;;;;;;;1729939;83;21032;-69
2022/03/12 13:41:18;;;;;;;13.28;8.43;;;;;;;;;;1729740;82;21089;-69
2022/03/12 13:43:50;;;;;;;10.80;5.95;;;;;;;;;;1729864;83;21575;-69
2022/03/12 13:46:17;;;;;;;14.15;7.87;;;;;;;;;;1729130;82;21108;-69
2022/03/12 13:48:43;;;;;;;17.52;8.53;;;;;;;;;;1729937;83;21072;-68
2022/03/12 13:51:10;;;;;;;10.85;7.22;;;;;;;;;;1713388;83;21080;-68
2022/03/12 13:53:39;;;;;;;18.35;9.78;;;;;;;;;;1713548;83;21029;-68
2022/03/12 13:56:17;;;;;;;13.80;9.18;;;;;;;;;;1729526;82;21057;-68
2022/03/12 13:58:41;;;;;;;12.40;7.00;;;;;;;;;;1728883;82;21064;-68
2022/03/12 14:01:09;;;;;;;15.23;8.08;;;;;;;;;;1729782;83;21100;-68
2022/03/12 14:03:45;;;;;;;14.83;8.00;;;;;;;;;;1729782;82;20997;-69
2022/03/12 14:06:30;;;;;;;14.80;8.83;;;;;;;;;;1729530;83;21548;-69
2022/03/12 14:09:02;;;;;;;16.48;8.08;;;;;;;;;;1729887;83;21045;-69
2022/03/12 14:11:30;;;;;;;19.57;10.78;;;;;;;;;;1729547;83;21060;-68
2022/03/12 14:13:59;;;;;;;20.12;9.93;;;;;;;;;;1729854;82;21026;-69
2022/03/12 14:16:27;;;;;;;15.80;8.08;;;;;;;;;;1729923;83;21049;-69
2022/03/12 14:19:00;;;;;;;22.95;9.03;;;;;;;;;;1729932;83;21041;-70
2022/03/12 14:21:35;;;;;;;18.75;9.75;;;;;;;;;;1727356;82;21077;-69
2022/03/12 14:24:08;;;;;;;18.35;9.73;;;;;;;;;;1716884;83;21078;-69
2022/03/12 14:26:54;;;;;;;11.95;6.87;;;;;;;;;;1716804;83;21030;-69
2022/03/12 14:29:28;;;;;;;18.55;7.22;;;;;;;;;;1717020;83;21002;-69
2022/03/12 14:31:56;;;;;;;12.13;6.70;;;;;;;;;;1716957;83;20986;-69
2022/03/12 14:34:25;;;;;;;10.38;5.12;;;;;;;;;;1716958;82;21041;-70
2022/03/12 14:36:51;;;;;;;11.30;6.03;;;;;;;;;;1716444;83;21029;-70
2022/03/12 14:39:17;;;;;;;11.10;5.92;;;;;;;;;;1717101;83;21057;-69
2022/03/12 14:41:45;;;;;;;10.40;5.55;;;;;;;;;;1716927;83;21072;-69
2022/03/12 14:44:11;;;;;;;9.98;5.50;;;;;;;;;;1716830;83;21096;-69
2022/03/12 14:46:41;;;;;;;8.70;4.28;;;;;;;;;;1716927;83;21041;-69